createdAt,value
2022-10-15T00:02:14.202Z,41.63
2022-10-15T00:04:49.071Z,43.70
2022-10-15T00:07:19.941Z,41.60
2022-10-15T00:09:50.814Z,43.73
2022-10-15T00:12:20.587Z,42.67
2022-10-15T00:14:53.488Z,43.73
2022-10-15T00:17:28.307Z,45.43
2022-10-15T00:19:58.292Z,43.83
2022-10-15T00:22:28.441Z,44.93
2022-10-15T00:24:57.637Z,44.07
2022-10-15T00:27:34.862Z,43.40
2022-10-15T00:30:04.802Z,46.77
2022-10-15T00:32:51.782Z,45.43
2022-10-15T00:35:24.848Z,44.80
2022-10-15T00:37:54.440Z,47.73
2022-10-15T00:40:32.659Z,46.37
2022-10-15T00:43:01.739Z,46.20
2022-10-15T00:45:32.417Z,46.20
2022-10-15T00:48:03.216Z,46.77
2022-10-15T00:50:33.974Z,47.17
2022-10-15T00:53:27.587Z,47.50
2022-10-15T00:55:58.134Z,47.57
2022-10-15T00:58:38.106Z,46.33
2022-10-15T01:01:16.550Z,46.83
2022-10-15T01:03:50.020Z,46.37
2022-10-15T01:06:19.417Z,47.07
2022-10-15T01:08:51.941Z,44.37
2022-10-15T01:11:54.355Z,47.37
2022-10-15T01:14:38.631Z,45.30
2022-10-15T01:17:23.215Z,46.80
2022-10-15T01:20:58.581Z,46.50
2022-10-15T01:24:27.487Z,45.67
2022-10-15T01:27:43.505Z,46.03
2022-10-15T01:30:38.615Z,46.83
2022-10-15T01:33:34.230Z,45.00
2022-10-15T01:36:16.057Z,46.60
2022-10-15T01:38:59.135Z,45.50
2022-10-15T01:41:38.239Z,45.90
2022-10-15T01:44:27.586Z,47.03
2022-10-15T01:47:03.833Z,46.33
2022-10-15T01:49:40.336Z,49.17
2022-10-15T01:52:16.152Z,45.03
2022-10-15T01:54:56.101Z,47.20
2022-10-15T01:57:32.217Z,45.63
2022-10-15T02:00:06.951Z,48.57
2022-10-15T02:02:52.246Z,47.70
2022-10-15T02:05:37.610Z,47.00
2022-10-15T02:08:20.473Z,48.03
2022-10-15T02:11:08.984Z,50.73
2022-10-15T02:13:53.143Z,46.57
2022-10-15T02:16:26.727Z,48.97
2022-10-15T02:19:08.451Z,49.73
2022-10-15T02:21:40.605Z,48.93
2022-10-15T02:24:15.613Z,52.03
2022-10-15T02:26:51.473Z,50.10
2022-10-15T02:29:24.356Z,52.30
2022-10-15T02:31:59.047Z,50.67
2022-10-15T02:34:32.619Z,51.40
2022-10-15T02:37:06.178Z,51.53
2022-10-15T02:39:36.172Z,51.10
2022-10-15T02:42:19.777Z,50.83
2022-10-15T02:44:49.235Z,51.53
2022-10-15T02:47:21.613Z,50.97
2022-10-15T02:49:57.292Z,50.70
2022-10-15T02:52:27.968Z,50.30
2022-10-15T02:55:05.112Z,50.63
2022-10-15T02:57:33.613Z,52.17
2022-10-15T03:00:03.050Z,50.67
2022-10-15T03:02:35.005Z,50.37
2022-10-15T03:05:05.116Z,50.50
2022-10-15T03:07:36.529Z,47.37
2022-10-15T03:10:31.494Z,48.93
2022-10-15T03:13:05.404Z,46.37
2022-10-15T03:15:34.714Z,45.37
2022-10-15T03:18:05.595Z,47.27
2022-10-15T03:20:36.837Z,44.50
2022-10-15T03:23:06.323Z,43.80
2022-10-15T03:25:41.986Z,44.50
2022-10-15T03:28:16.273Z,42.83
2022-10-15T03:30:47.454Z,41.40
2022-10-15T03:33:17.804Z,43.67
2022-10-15T03:35:54.317Z,43.60
2022-10-15T03:38:29.929Z,41.60
2022-10-15T03:41:05.511Z,40.47
2022-10-15T03:43:41.905Z,40.40
2022-10-15T03:46:14.407Z,40.13
2022-10-15T03:48:43.715Z,43.20
2022-10-15T03:51:24.619Z,39.30
2022-10-15T03:53:57.995Z,39.73
2022-10-15T03:56:38.345Z,40.60
2022-10-15T03:59:15.509Z,42.27
2022-10-15T04:01:45.661Z,40.73
2022-10-15T04:04:23.731Z,41.67
2022-10-15T04:06:56.571Z,37.60
2022-10-15T04:09:33.897Z,39.93
2022-10-15T04:12:05.857Z,40.33
2022-10-15T04:14:36.228Z,39.07
2022-10-15T04:17:11.578Z,38.17
2022-10-15T04:19:42.458Z,36.57
2022-10-15T04:22:12.430Z,39.80
2022-10-15T04:24:41.211Z,37.90
2022-10-15T04:27:12.331Z,39.80
2022-10-15T04:29:41.043Z,37.90
2022-10-15T04:35:09.042Z,39.30
2022-10-15T04:37:40.657Z,38.97
2022-10-15T04:42:54.655Z,39.57
2022-10-15T04:47:55.226Z,39.00
2022-10-15T04:50:25.367Z,40.67
2022-10-15T04:52:56.719Z,37.37
2022-10-15T04:58:07.275Z,40.43
2022-10-15T05:00:36.621Z,38.93
2022-10-15T05:03:20.728Z,39.50
2022-10-15T05:05:50.128Z,39.87
2022-10-15T05:11:09.663Z,38.63
2022-10-15T05:13:39.734Z,42.80
2022-10-15T05:16:17.143Z,40.37
2022-10-15T05:18:49.141Z,41.87
2022-10-15T05:21:24.060Z,41.13
2022-10-15T05:24:01.573Z,42.60
2022-10-15T05:26:34.033Z,40.37
2022-10-15T05:29:03.187Z,40.80
2022-10-15T05:31:48.356Z,42.10
2022-10-15T05:34:17.137Z,41.87
2022-10-15T05:36:45.852Z,43.07
2022-10-15T05:39:16.981Z,42.70
2022-10-15T05:42:00.296Z,43.53
2022-10-15T05:44:31.880Z,41.87
2022-10-15T05:47:09.228Z,42.27
2022-10-15T05:52:23.691Z,37.43
2022-10-15T05:54:56.446Z,37.87
2022-10-15T05:57:25.744Z,37.73
2022-10-15T06:00:00.478Z,36.93
2022-10-15T06:02:29.380Z,37.53
2022-10-15T06:04:59.647Z,37.00
2022-10-15T06:07:29.343Z,36.67
2022-10-15T06:10:15.769Z,37.77
2022-10-15T06:12:44.961Z,35.40
2022-10-15T06:15:22.238Z,35.70
2022-10-15T06:17:54.664Z,37.60
2022-10-15T06:20:23.180Z,37.37
2022-10-15T06:22:52.495Z,37.77
2022-10-15T06:25:22.634Z,37.83
2022-10-15T06:27:51.767Z,38.63
2022-10-15T06:30:21.477Z,37.30
2022-10-15T06:32:50.999Z,38.17
2022-10-15T06:35:23.039Z,38.77
2022-10-15T06:37:51.915Z,38.80
2022-10-15T06:40:35.701Z,39.93
2022-10-15T06:45:52.969Z,39.23
2022-10-15T06:50:51.050Z,39.00
2022-10-15T06:53:34.305Z,39.87
2022-10-15T06:56:09.022Z,38.23
2022-10-15T06:58:39.291Z,38.57
2022-10-15T07:01:10.188Z,40.43
2022-10-15T07:03:39.194Z,39.40
2022-10-15T07:06:10.314Z,40.97
2022-10-15T07:08:40.597Z,39.10
2022-10-15T07:11:13.494Z,41.73
2022-10-15T07:13:42.094Z,38.97
2022-10-15T07:16:14.770Z,39.57
2022-10-15T07:18:51.598Z,41.13
2022-10-15T07:21:20.238Z,39.00
2022-10-15T07:23:49.923Z,39.37
2022-10-15T07:26:19.773Z,37.87
2022-10-15T07:28:50.153Z,38.43
2022-10-15T07:31:18.449Z,36.97
2022-10-15T07:33:50.521Z,36.20
2022-10-15T07:36:23.009Z,38.17
2022-10-15T07:38:52.009Z,38.07
2022-10-15T07:41:26.840Z,36.00
2022-10-15T07:43:55.401Z,37.23
2022-10-15T07:46:23.768Z,37.90
2022-10-15T07:48:53.930Z,36.40
2022-10-15T07:51:25.570Z,38.27
2022-10-15T07:53:54.062Z,38.00
2022-10-15T07:56:31.855Z,35.60
2022-10-15T07:59:05.310Z,36.77
2022-10-15T08:01:34.174Z,35.30
2022-10-15T08:04:03.172Z,36.77
2022-10-15T08:06:42.222Z,34.67
2022-10-15T08:09:12.895Z,34.73
2022-10-15T08:11:44.467Z,34.73
2022-10-15T08:14:27.907Z,35.67
2022-10-15T08:17:04.666Z,35.93
2022-10-15T08:19:33.410Z,34.80
2022-10-15T08:22:09.515Z,33.10
2022-10-15T08:24:37.795Z,33.73
2022-10-15T08:27:15.034Z,33.43
2022-10-15T08:29:43.561Z,32.27
2022-10-15T08:32:21.456Z,36.77
2022-10-15T08:34:50.406Z,33.23
2022-10-15T08:37:23.651Z,32.43
2022-10-15T08:39:59.406Z,30.93
2022-10-15T08:42:38.992Z,33.23
2022-10-15T08:45:23.323Z,31.60
2022-10-15T08:48:00.379Z,31.10
2022-10-15T08:50:39.880Z,30.87
2022-10-15T08:53:13.445Z,30.80
2022-10-15T08:55:47.810Z,31.20
2022-10-15T08:58:30.375Z,29.43
2022-10-15T09:01:07.840Z,30.80
2022-10-15T09:06:41.948Z,28.73
2022-10-15T09:09:19.626Z,29.63
2022-10-15T09:12:00.846Z,29.07
2022-10-15T09:14:43.081Z,28.70
2022-10-15T09:17:41.742Z,25.13
2022-10-15T09:20:20.863Z,26.90
2022-10-15T09:23:09.966Z,26.83
2022-10-15T09:25:48.697Z,25.63
2022-10-15T09:28:21.307Z,25.43
2022-10-15T09:31:01.372Z,25.87
2022-10-15T09:33:42.466Z,25.30
2022-10-15T09:36:33.606Z,26.87
2022-10-15T09:39:29.554Z,28.10
2022-10-15T09:42:26.307Z,28.20
2022-10-15T09:48:22.337Z,27.70
2022-10-15T09:51:11.670Z,27.67
2022-10-15T09:54:12.812Z,29.03
2022-10-15T09:57:09.888Z,26.67
2022-10-15T10:03:13.587Z,24.70
2022-10-15T10:06:11.268Z,22.97
2022-10-15T10:09:02.489Z,23.57
2022-10-15T10:12:19.896Z,23.50
2022-10-15T10:15:18.597Z,22.17
2022-10-15T10:18:23.947Z,22.20
2022-10-15T10:24:41.347Z,22.40
2022-10-15T10:30:34.451Z,22.80
2022-10-15T10:33:18.096Z,23.10
2022-10-15T10:36:15.615Z,22.77
2022-10-15T10:39:05.919Z,22.87
2022-10-15T10:42:49.177Z,22.50
2022-10-15T10:45:41.721Z,20.27
2022-10-15T10:48:26.951Z,19.23
2022-10-15T10:51:45.820Z,19.97
2022-10-15T10:54:36.519Z,19.93
2022-10-15T10:57:30.592Z,19.30
2022-10-15T11:00:11.389Z,18.07
2022-10-15T11:02:44.504Z,19.40
2022-10-15T11:05:29.066Z,17.80
2022-10-15T11:11:24.446Z,18.23
2022-10-15T11:14:20.449Z,17.43
2022-10-15T11:17:03.368Z,16.87
2022-10-15T11:20:12.133Z,15.73
2022-10-15T11:23:04.195Z,15.27
2022-10-15T11:25:53.868Z,15.17
2022-10-15T11:29:05.976Z,12.77
2022-10-15T11:32:02.007Z,13.53
2022-10-15T11:35:01.829Z,13.57
2022-10-15T11:37:50.266Z,13.73
2022-10-15T11:40:35.334Z,13.57
2022-10-15T11:44:02.608Z,13.60
2022-10-15T11:46:50.392Z,11.87
2022-10-15T11:49:46.762Z,13.60
2022-10-15T11:52:52.998Z,15.97
2022-10-15T11:55:53.644Z,13.90
2022-10-15T12:02:05.304Z,14.47
2022-10-15T12:04:51.360Z,14.97
2022-10-15T12:07:29.881Z,14.27
2022-10-15T12:10:22.068Z,14.07
2022-10-15T12:13:17.765Z,14.60
2022-10-15T12:15:56.971Z,14.63
2022-10-15T12:18:52.421Z,14.37
2022-10-15T12:21:49.567Z,14.30
2022-10-15T12:27:44.863Z,13.87
2022-10-15T12:30:38.703Z,13.37
2022-10-15T12:33:54.868Z,13.80
2022-10-15T12:36:45.762Z,13.33
2022-10-15T12:39:47.573Z,13.80
2022-10-15T12:42:31.963Z,13.50
2022-10-15T12:45:04.658Z,12.93
2022-10-15T12:47:55.448Z,12.77
2022-10-15T12:50:35.987Z,12.93
2022-10-15T12:53:57.705Z,13.53
2022-10-15T12:56:43.131Z,13.00
2022-10-15T12:59:51.750Z,11.87
2022-10-15T13:02:50.733Z,11.97
2022-10-15T13:09:26.520Z,12.13
2022-10-15T13:12:11.089Z,12.63
2022-10-15T13:14:47.669Z,13.00
2022-10-15T13:17:27.055Z,12.50
2022-10-15T13:20:34.326Z,12.83
2022-10-15T13:23:31.039Z,12.23
2022-10-15T13:26:34.610Z,12.03
2022-10-15T13:29:09.840Z,12.87
2022-10-15T13:31:50.150Z,12.53
2022-10-15T13:34:32.262Z,12.90
2022-10-15T13:37:37.709Z,12.07
2022-10-15T13:40:21.093Z,13.13
2022-10-15T13:45:55.943Z,13.47
2022-10-15T13:51:23.565Z,13.80
2022-10-15T13:54:13.760Z,13.33
2022-10-15T13:59:59.047Z,14.03
2022-10-15T14:02:52.176Z,13.77
2022-10-15T14:05:30.879Z,13.73
2022-10-15T14:11:07.434Z,14.30
2022-10-15T14:13:47.080Z,13.37
2022-10-15T14:20:14.372Z,12.63
2022-10-15T14:22:59.641Z,13.87
2022-10-15T14:25:55.085Z,12.67
2022-10-15T14:32:10.091Z,13.50
2022-10-15T14:34:45.415Z,13.90
2022-10-15T14:37:48.326Z,13.43
2022-10-15T14:40:38.543Z,13.67
2022-10-15T14:46:36.199Z,13.50
2022-10-15T14:49:41.837Z,14.23
2022-10-15T14:55:25.980Z,12.63
2022-10-15T15:00:49.250Z,11.90
2022-10-15T15:03:39.731Z,10.57
2022-10-15T15:06:27.409Z,10.80
2022-10-15T15:09:08.632Z,9.50
2022-10-15T15:11:42.193Z,9.47
2022-10-15T15:14:33.090Z,8.57
2022-10-15T15:17:07.136Z,8.83
2022-10-15T15:20:08.796Z,8.70
2022-10-15T15:22:57.981Z,8.17
2022-10-15T15:25:38.942Z,7.93
2022-10-15T15:28:30.761Z,6.93
2022-10-15T15:34:02.520Z,7.47
2022-10-15T15:36:49.746Z,7.00
2022-10-15T15:39:47.371Z,7.50
2022-10-15T15:45:45.413Z,6.70
2022-10-15T15:48:22.676Z,6.77
2022-10-15T15:51:33.334Z,7.07
2022-10-15T15:54:47.281Z,7.37
2022-10-15T15:57:26.625Z,6.37
2022-10-15T16:03:24.341Z,6.60
2022-10-15T16:06:04.996Z,6.70
2022-10-15T16:08:46.732Z,6.57
2022-10-15T16:14:12.513Z,7.67
2022-10-15T16:17:01.970Z,7.17
2022-10-15T16:19:35.677Z,7.13
2022-10-15T16:22:11.667Z,6.73
2022-10-15T16:24:48.529Z,6.07
2022-10-15T16:27:47.179Z,6.47
2022-10-15T16:30:21.952Z,6.50
2022-10-15T16:35:49.484Z,7.33
2022-10-15T16:38:25.903Z,6.80
2022-10-15T16:41:10.136Z,7.57
2022-10-15T16:43:54.008Z,6.90
2022-10-15T16:46:25.831Z,6.83
2022-10-15T16:49:01.909Z,6.77
2022-10-15T16:51:34.986Z,6.13
2022-10-15T16:54:09.386Z,6.00
2022-10-15T16:59:56.316Z,7.23
2022-10-15T17:02:37.001Z,7.77
2022-10-15T17:05:22.314Z,7.67
2022-10-15T17:08:14.514Z,7.63
2022-10-15T17:10:50.415Z,7.73
2022-10-15T17:13:26.317Z,7.80
2022-10-15T17:19:26.451Z,8.23
2022-10-15T17:22:06.748Z,8.73
2022-10-15T17:24:49.219Z,8.23
2022-10-15T17:27:40.820Z,8.73
2022-10-15T17:30:35.969Z,8.20
2022-10-15T17:33:58.202Z,8.40
2022-10-15T17:36:44.485Z,6.83
2022-10-15T17:39:17.488Z,7.27
2022-10-15T17:41:56.943Z,7.07
2022-10-15T17:44:27.130Z,6.83
2022-10-15T17:47:09.905Z,7.33
2022-10-15T17:49:45.397Z,7.37
2022-10-15T17:52:24.943Z,6.90
2022-10-15T17:55:07.448Z,6.90
2022-10-15T17:58:10.181Z,6.43
2022-10-15T18:00:38.581Z,5.90
2022-10-15T18:03:31.575Z,5.53
2022-10-15T18:06:21.267Z,6.43
2022-10-15T18:09:08.767Z,5.10
2022-10-15T18:11:45.218Z,5.30
2022-10-15T18:14:23.383Z,5.47
2022-10-15T18:16:57.722Z,4.50
2022-10-15T18:19:30.004Z,4.40
2022-10-15T18:22:18.085Z,4.60
2022-10-15T18:25:00.871Z,4.30
2022-10-15T18:27:33.389Z,4.63
2022-10-15T18:30:17.489Z,4.83
2022-10-15T18:33:13.491Z,3.63
2022-10-15T18:35:44.474Z,3.30
2022-10-15T18:38:19.647Z,4.03
2022-10-15T18:40:50.549Z,3.90
2022-10-15T18:43:41.694Z,4.20
2022-10-15T18:49:07.379Z,3.70
2022-10-15T18:51:43.821Z,4.40
2022-10-15T18:54:28.239Z,4.30
2022-10-15T18:57:07.961Z,4.53
2022-10-15T18:59:58.247Z,3.93
2022-10-15T19:02:41.095Z,4.50
2022-10-15T19:05:11.839Z,4.47
2022-10-15T19:07:48.593Z,5.30
2022-10-15T19:10:51.331Z,4.73
2022-10-15T19:13:23.274Z,4.93
2022-10-15T19:15:56.630Z,4.40
2022-10-15T19:18:39.248Z,4.70
2022-10-15T19:21:17.828Z,4.67
2022-10-15T19:23:59.249Z,4.90
2022-10-15T19:27:12.797Z,4.27
2022-10-15T19:30:18.121Z,4.00
2022-10-15T19:32:50.587Z,4.20
2022-10-15T19:35:37.316Z,3.70
2022-10-15T19:38:27.554Z,3.63
2022-10-15T19:43:58.072Z,4.40
2022-10-15T19:46:54.287Z,3.97
2022-10-15T19:49:38.124Z,4.90
2022-10-15T19:52:20.593Z,4.70
2022-10-15T19:55:18.711Z,5.20
2022-10-15T19:57:52.711Z,5.73
2022-10-15T20:00:22.956Z,5.73
2022-10-15T20:03:11.282Z,5.90
2022-10-15T20:05:57.789Z,5.60
2022-10-15T20:08:29.125Z,5.37
2022-10-15T20:11:21.435Z,5.07
2022-10-15T20:14:08.273Z,4.83
2022-10-15T20:16:56.257Z,4.47
2022-10-15T20:19:36.828Z,4.40
2022-10-15T20:22:26.434Z,3.97
2022-10-15T20:31:01.898Z,4.10
2022-10-15T20:33:41.916Z,4.40
2022-10-15T20:36:41.498Z,4.30
2022-10-15T20:39:21.080Z,4.63
2022-10-15T20:42:14.931Z,4.60
2022-10-15T20:44:51.380Z,4.80
2022-10-15T20:47:27.319Z,5.57
2022-10-15T20:50:00.182Z,4.57
2022-10-15T20:52:48.042Z,4.50
2022-10-15T20:55:21.432Z,4.57
2022-10-15T20:58:12.084Z,4.60
2022-10-15T21:01:03.930Z,4.20
2022-10-15T21:03:43.681Z,4.60
2022-10-15T21:06:25.102Z,4.10
2022-10-15T21:09:47.083Z,4.90
2022-10-15T21:12:31.506Z,4.70
2022-10-15T21:15:13.593Z,4.73
2022-10-15T21:17:59.381Z,4.97
2022-10-15T21:20:41.868Z,5.00
2022-10-15T21:23:28.814Z,4.50
2022-10-15T21:26:10.807Z,5.10
2022-10-15T21:29:03.172Z,5.17
2022-10-15T21:31:49.747Z,4.97
2022-10-15T21:34:21.915Z,4.87
2022-10-15T21:39:51.865Z,5.27
2022-10-15T21:45:56.073Z,4.40
2022-10-15T21:48:36.241Z,4.80
2022-10-15T21:51:16.391Z,4.27
2022-10-15T21:54:03.740Z,3.90
2022-10-15T21:56:35.992Z,3.50
2022-10-15T21:59:09.729Z,3.50
2022-10-15T22:07:21.042Z,3.23
2022-10-15T22:10:23.219Z,3.10
2022-10-15T22:13:17.110Z,3.23
2022-10-15T22:16:03.475Z,3.00
2022-10-15T22:18:41.975Z,2.93
2022-10-15T22:21:33.142Z,3.33
2022-10-15T22:24:16.231Z,3.07
2022-10-15T22:26:47.821Z,2.70
2022-10-15T22:29:34.505Z,2.93
2022-10-15T22:32:26.984Z,2.87
2022-10-15T22:34:58.765Z,3.70
2022-10-15T22:37:39.761Z,2.40
2022-10-15T22:40:16.663Z,2.70
2022-10-15T22:42:52.668Z,2.60
2022-10-15T22:45:24.610Z,2.47
2022-10-15T22:48:16.858Z,2.27
2022-10-15T22:50:58.351Z,2.67
2022-10-15T22:53:54.806Z,2.83
2022-10-15T22:56:27.070Z,2.40
2022-10-15T22:59:04.539Z,2.40
2022-10-15T23:01:39.295Z,2.20
2022-10-15T23:04:16.840Z,2.33
2022-10-15T23:12:52.271Z,2.53
2022-10-15T23:15:36.243Z,2.10
2022-10-15T23:18:24.581Z,2.20
2022-10-15T23:21:06.976Z,2.47
2022-10-15T23:26:34.870Z,2.50
2022-10-15T23:29:10.728Z,2.50
2022-10-15T23:37:39.682Z,2.87
2022-10-15T23:40:50.005Z,2.60
2022-10-15T23:43:28.705Z,2.53
2022-10-15T23:46:01.270Z,2.80
2022-10-15T23:48:40.509Z,2.90
2022-10-15T23:51:28.002Z,2.93
2022-10-15T23:57:02.997Z,2.90
2022-10-15T23:59:35.499Z,2.63
